createdAt,value
2017-11-27T03:03:53.337Z,0
2017-11-27T03:04:33.999Z,0
2017-11-27T03:05:14.590Z,0
2017-11-27T03:05:55.121Z,0
2017-11-27T03:06:35.684Z,0
2017-11-27T03:07:16.192Z,0
2017-11-27T03:07:56.693Z,0
2017-11-27T03:08:37.216Z,0
2017-11-27T03:09:17.798Z,0
2017-11-27T03:09:58.344Z,0
2017-11-27T03:10:38.815Z,0
2017-11-27T03:11:19.426Z,0
2017-11-27T03:11:59.968Z,0
2017-11-27T03:12:40.512Z,0
2017-11-27T03:13:21.080Z,0
2017-11-27T03:14:01.590Z,0
2017-11-27T03:14:42.113Z,0
2017-11-27T03:15:22.683Z,0
2017-11-27T03:16:03.130Z,0
2017-11-27T03:16:43.675Z,0
2017-11-27T03:17:24.245Z,0
2017-11-27T03:18:04.766Z,0
2017-11-27T03:18:45.306Z,0
2017-11-27T03:19:25.820Z,0
2017-11-27T03:20:06.376Z,0
2017-11-27T03:20:46.933Z,0
2017-11-27T03:21:27.563Z,0
2017-11-27T03:22:08.116Z,0
2017-11-27T03:22:48.631Z,0
2017-11-27T03:23:29.213Z,0
2017-11-27T03:24:09.752Z,0
2017-11-27T03:24:50.464Z,0
2017-11-27T03:25:30.962Z,0
2017-11-27T03:26:11.463Z,0
2017-11-27T03:26:52.023Z,0
2017-11-27T03:27:32.530Z,0
2017-11-27T03:28:13.061Z,0
2017-11-27T03:28:53.603Z,0
2017-11-27T03:29:34.162Z,0
2017-11-27T03:30:14.638Z,0
2017-11-27T03:30:55.160Z,0
2017-11-27T03:31:35.751Z,0
2017-11-27T03:32:16.251Z,0
2017-11-27T03:32:56.775Z,0
2017-11-27T03:33:37.319Z,0
2017-11-27T03:34:17.878Z,0
2017-11-27T03:34:58.370Z,0
2017-11-27T03:35:38.967Z,0
2017-11-27T03:36:19.473Z,0
2017-11-27T03:37:00.017Z,0
2017-11-27T03:37:40.577Z,0
2017-11-27T03:38:21.123Z,0
2017-11-27T03:39:01.642Z,0
2017-11-27T03:39:42.181Z,0
2017-11-27T03:40:22.777Z,0
2017-11-27T03:41:03.280Z,0
2017-11-27T03:41:43.856Z,0
2017-11-27T03:42:24.347Z,0
2017-11-27T03:43:04.887Z,0
2017-11-27T03:43:45.401Z,0
2017-11-27T03:44:25.907Z,0
2017-11-27T03:45:06.434Z,0
2017-11-27T03:45:46.994Z,0
2017-11-27T03:46:27.487Z,0
2017-11-27T03:47:08.061Z,0
2017-11-27T03:47:48.504Z,0
2017-11-27T03:48:29.043Z,0
2017-11-27T03:49:09.618Z,0
2017-11-27T03:49:50.130Z,0
2017-11-27T03:50:30.640Z,0
2017-11-27T03:51:11.268Z,0
2017-11-27T03:51:51.805Z,0
2017-11-27T03:52:32.361Z,0
2017-11-27T03:53:12.928Z,0
2017-11-27T03:53:53.467Z,0
2017-11-27T03:54:33.978Z,0
2017-11-27T03:55:14.523Z,0
2017-11-27T03:55:55.138Z,0
2017-11-27T03:56:35.679Z,0
2017-11-27T03:57:17.046Z,0
2017-11-27T03:57:57.599Z,0
2017-11-27T03:58:38.210Z,0
2017-11-27T03:59:18.768Z,0
2017-11-27T03:59:59.307Z,0
2017-11-27T04:00:39.750Z,0
2017-11-27T04:01:20.319Z,0
2017-11-27T04:02:00.842Z,0
2017-11-27T04:02:41.379Z,0
2017-11-27T04:03:21.928Z,0
2017-11-27T04:04:02.502Z,0
2017-11-27T04:04:43.033Z,0
2017-11-27T04:05:23.531Z,0
2017-11-27T04:06:04.076Z,0
2017-11-27T04:06:44.582Z,0
2017-11-27T04:07:25.139Z,0
2017-11-27T04:08:05.780Z,0
2017-11-27T04:08:46.415Z,0
2017-11-27T04:09:26.911Z,0
2017-11-27T04:10:07.481Z,0
2017-11-27T04:10:48.063Z,0
2017-11-27T04:11:28.542Z,0
2017-11-27T04:12:09.087Z,0
2017-11-27T04:12:49.647Z,0
2017-11-27T04:13:30.150Z,0
2017-11-27T04:14:10.653Z,0
2017-11-27T04:14:51.184Z,0
2017-11-27T04:15:31.792Z,0
2017-11-27T04:16:12.370Z,0
2017-11-27T04:16:52.898Z,0
2017-11-27T04:17:33.427Z,0
2017-11-27T04:18:13.985Z,0
2017-11-27T04:18:54.545Z,0
2017-11-27T04:19:35.092Z,0
2017-11-27T04:20:15.662Z,0
2017-11-27T04:20:56.222Z,0
2017-11-27T04:21:36.722Z,0
2017-11-27T04:22:17.388Z,0
2017-11-27T04:22:57.968Z,0
2017-11-27T04:23:38.527Z,0
2017-11-27T04:24:19.129Z,0
2017-11-27T04:24:59.670Z,0
2017-11-27T04:25:40.206Z,0
2017-11-27T04:26:20.732Z,0
2017-11-27T04:27:01.286Z,0
2017-11-27T04:27:41.842Z,0
2017-11-27T04:28:22.387Z,0
2017-11-27T04:29:02.999Z,0
2017-11-27T04:29:43.544Z,0
2017-11-27T04:30:24.117Z,0
2017-11-27T04:31:04.656Z,0
2017-11-27T04:31:45.164Z,0
2017-11-27T04:32:25.764Z,0
2017-11-27T04:33:06.278Z,0
2017-11-27T04:33:46.832Z,0
2017-11-27T04:34:27.324Z,0
2017-11-27T04:35:07.919Z,0
2017-11-27T04:35:49.369Z,0
2017-11-27T04:36:28.977Z,0
2017-11-27T04:37:09.529Z,0
2017-11-27T04:37:50.060Z,0
2017-11-27T04:38:30.575Z,0
2017-11-27T04:39:11.119Z,0
2017-11-27T04:39:51.694Z,0
2017-11-27T04:40:32.198Z,0
2017-11-27T04:41:12.701Z,0
2017-11-27T04:41:53.273Z,0
2017-11-27T04:42:33.823Z,0
2017-11-27T04:43:14.321Z,0
2017-11-27T04:43:54.877Z,0
2017-11-27T04:44:35.378Z,0
2017-11-27T04:45:15.909Z,0
2017-11-27T04:45:56.487Z,0
2017-11-27T04:46:36.993Z,0
2017-11-27T04:47:17.566Z,0
2017-11-27T04:47:58.049Z,0
2017-11-27T04:48:38.665Z,0
2017-11-27T04:49:19.123Z,0
2017-11-27T04:49:59.629Z,0
2017-11-27T04:50:40.177Z,0
2017-11-27T04:51:20.737Z,0
2017-11-27T04:52:01.245Z,0
2017-11-27T04:52:41.780Z,0
2017-11-27T04:53:22.307Z,0
2017-11-27T04:54:02.852Z,0
2017-11-27T04:54:43.385Z,0
2017-11-27T04:55:23.925Z,0
2017-11-27T04:56:04.451Z,0
2017-11-27T04:56:45.008Z,0
2017-11-27T04:57:25.550Z,0
2017-11-27T04:58:06.070Z,0
2017-11-27T04:58:46.584Z,0
2017-11-27T04:59:27.115Z,0
2017-11-27T05:00:07.687Z,0
2017-11-27T05:00:48.250Z,0
2017-11-27T05:01:28.840Z,0
2017-11-27T05:02:09.333Z,0
2017-11-27T05:02:49.922Z,0
2017-11-27T05:03:30.528Z,0
2017-11-27T05:04:11.066Z,0
2017-11-27T05:04:51.552Z,0
2017-11-27T05:05:32.130Z,0
2017-11-27T05:06:12.623Z,0
2017-11-27T05:06:53.165Z,0
2017-11-27T05:07:33.682Z,0
2017-11-27T05:08:14.228Z,0
2017-11-27T05:08:54.843Z,0
2017-11-27T05:09:35.355Z,0
2017-11-27T05:10:15.847Z,0
2017-11-27T05:10:56.421Z,0
2017-11-27T05:11:37.047Z,0
2017-11-27T05:12:17.591Z,0
2017-11-27T05:12:58.165Z,0
2017-11-27T05:13:38.667Z,0
2017-11-27T05:14:19.188Z,0
2017-11-27T05:14:59.751Z,0
2017-11-27T05:15:40.303Z,0
2017-11-27T05:16:20.931Z,0
2017-11-27T05:17:01.552Z,0
2017-11-27T05:17:41.987Z,0
2017-11-27T05:18:22.527Z,0
2017-11-27T05:19:03.109Z,0
2017-11-27T05:19:43.591Z,0
2017-11-27T05:20:24.159Z,0
2017-11-27T05:21:04.676Z,0
2017-11-27T05:21:45.286Z,0
2017-11-27T05:22:25.942Z,0
2017-11-27T05:23:06.475Z,0
2017-11-27T05:23:47.030Z,0
2017-11-27T05:24:27.557Z,0
2017-11-27T05:25:08.114Z,0
2017-11-27T05:25:48.703Z,0
2017-11-27T05:26:29.258Z,0
2017-11-27T05:27:09.819Z,0
2017-11-27T05:27:50.374Z,0
2017-11-27T05:28:30.930Z,0
2017-11-27T05:29:11.444Z,0
2017-11-27T05:29:52.009Z,0
2017-11-27T05:30:32.509Z,0
2017-11-27T05:31:13.063Z,0
2017-11-27T05:31:53.606Z,0
2017-11-27T05:32:34.179Z,0
2017-11-27T05:33:14.727Z,0
2017-11-27T05:33:55.273Z,0
2017-11-27T05:34:35.861Z,0
2017-11-27T05:35:16.385Z,0
2017-11-27T05:35:56.928Z,0
2017-11-27T05:36:37.478Z,0
2017-11-27T05:37:18.023Z,0
2017-11-27T05:37:58.540Z,0
2017-11-27T05:38:39.059Z,0
2017-11-27T05:39:19.608Z,0
2017-11-27T05:40:00.193Z,0
2017-11-27T05:40:40.676Z,0
2017-11-27T05:41:21.233Z,0
2017-11-27T05:42:01.763Z,0
2017-11-27T05:42:42.307Z,0
2017-11-27T05:43:22.858Z,0
2017-11-27T05:44:03.391Z,0
2017-11-27T05:44:43.951Z,0
2017-11-27T05:45:24.476Z,0
2017-11-27T05:46:04.982Z,0
2017-11-27T05:46:45.545Z,0
2017-11-27T05:47:26.067Z,0
2017-11-27T05:48:06.652Z,0
2017-11-27T05:48:47.205Z,0
2017-11-27T05:49:27.811Z,0
2017-11-27T05:50:08.361Z,0
2017-11-27T05:50:48.875Z,0
2017-11-27T05:51:29.409Z,0
2017-11-27T05:52:09.971Z,0
2017-11-27T05:52:50.472Z,0
2017-11-27T05:53:31.025Z,0
2017-11-27T05:54:11.546Z,0
2017-11-27T05:54:52.063Z,0
2017-11-27T05:55:32.607Z,0
2017-11-27T05:56:13.107Z,0
2017-11-27T05:56:53.672Z,0
2017-11-27T05:57:34.200Z,0
2017-11-27T05:58:14.681Z,0
2017-11-27T05:58:55.236Z,0
2017-11-27T05:59:35.742Z,0
2017-11-27T06:00:16.267Z,0
2017-11-27T06:00:57.049Z,0
2017-11-27T06:01:37.622Z,0
2017-11-27T06:02:18.155Z,0
2017-11-27T06:02:58.711Z,0
2017-11-27T06:03:39.246Z,0
2017-11-27T06:04:19.757Z,0
2017-11-27T06:05:00.365Z,0
2017-11-27T06:05:40.890Z,0
2017-11-27T06:06:22.091Z,0
2017-11-27T06:07:02.621Z,0
2017-11-27T06:07:43.183Z,0
2017-11-27T06:08:23.847Z,0
2017-11-27T06:09:04.403Z,0
2017-11-27T06:09:44.929Z,0
2017-11-27T06:10:25.487Z,0
2017-11-27T06:11:06.043Z,0
2017-11-27T06:11:46.852Z,0
2017-11-27T06:12:27.635Z,0
2017-11-27T06:13:08.413Z,0
2017-11-27T06:13:48.958Z,0
2017-11-27T06:14:29.520Z,0
2017-11-27T06:15:10.023Z,0
2017-11-27T06:15:50.548Z,0
2017-11-27T06:16:31.103Z,0
2017-11-27T06:17:11.684Z,0
2017-11-27T06:17:52.242Z,0
2017-11-27T06:18:32.733Z,0
2017-11-27T06:19:13.290Z,4
2017-11-27T06:19:53.850Z,4
2017-11-27T06:20:34.705Z,4
2017-11-27T06:21:15.127Z,0
2017-11-27T06:21:55.678Z,0
2017-11-27T06:22:36.223Z,4
2017-11-27T06:23:16.816Z,4
2017-11-27T06:23:57.393Z,4
2017-11-27T06:24:38.084Z,0
2017-11-27T06:25:18.677Z,4
2017-11-27T06:25:59.215Z,4
2017-11-27T06:26:39.782Z,4
2017-11-27T06:27:20.425Z,4
2017-11-27T06:28:01.571Z,4
2017-11-27T06:28:42.323Z,4
2017-11-27T06:29:22.872Z,4
2017-11-27T06:30:03.586Z,0
2017-11-27T06:30:44.065Z,4
2017-11-27T06:31:24.646Z,0
2017-11-27T06:32:05.228Z,4
2017-11-27T06:32:45.751Z,0
2017-11-27T06:33:26.310Z,4
2017-11-27T06:34:06.837Z,0
2017-11-27T06:34:47.331Z,4
2017-11-27T06:35:27.869Z,4
2017-11-27T06:36:08.577Z,4
2017-11-27T06:36:49.298Z,4
2017-11-27T06:37:29.837Z,4
2017-11-27T06:38:10.345Z,4
2017-11-27T06:38:50.868Z,8
2017-11-27T06:39:31.405Z,8
2017-11-27T06:40:11.957Z,8
2017-11-27T06:40:52.494Z,8
2017-11-27T06:41:33.038Z,12
2017-11-27T06:42:13.708Z,16
2017-11-27T06:42:54.188Z,16
2017-11-27T06:43:34.779Z,20
2017-11-27T06:44:15.291Z,20
2017-11-27T06:44:55.866Z,24
2017-11-27T06:45:36.405Z,32
2017-11-27T06:46:16.918Z,32
2017-11-27T06:46:57.470Z,36
2017-11-27T06:47:37.972Z,40
2017-11-27T06:48:18.604Z,44
2017-11-27T06:48:59.150Z,40
2017-11-27T06:49:39.728Z,40
2017-11-27T06:50:20.216Z,52
2017-11-27T06:51:00.775Z,56
2017-11-27T06:51:41.334Z,60
2017-11-27T06:52:21.879Z,60
2017-11-27T06:53:02.419Z,60
2017-11-27T06:53:42.985Z,60
2017-11-27T06:54:23.514Z,56
2017-11-27T06:55:04.061Z,60
2017-11-27T06:55:44.702Z,64
2017-11-27T06:56:25.219Z,72
2017-11-27T06:57:05.770Z,84
2017-11-27T06:57:46.396Z,96
2017-11-27T06:58:26.970Z,104
2017-11-27T06:59:07.446Z,80
2017-11-27T06:59:48.018Z,64
2017-11-27T07:00:28.649Z,64
2017-11-27T07:01:09.133Z,68
2017-11-27T07:01:49.805Z,60
2017-11-27T07:02:30.368Z,72
2017-11-27T07:03:11.979Z,68
2017-11-27T07:03:52.521Z,80
2017-11-27T07:04:33.137Z,84
2017-11-27T07:05:13.838Z,100
2017-11-27T07:05:54.859Z,124
2017-11-27T07:06:35.529Z,148
2017-11-27T07:07:16.585Z,148
2017-11-27T07:07:57.108Z,124
2017-11-27T07:08:38.944Z,124
2017-11-27T07:09:19.503Z,136
2017-11-27T07:10:00.180Z,132
2017-11-27T07:10:40.704Z,116
2017-11-27T07:11:21.631Z,112
2017-11-27T07:12:02.695Z,120
2017-11-27T07:12:43.262Z,128
2017-11-27T07:13:23.759Z,124
2017-11-27T07:14:04.396Z,116
2017-11-27T07:14:45.410Z,112
2017-11-27T07:15:26.900Z,124
2017-11-27T07:16:06.885Z,124
2017-11-27T07:16:47.485Z,152
2017-11-27T07:17:28.294Z,164
2017-11-27T07:18:08.836Z,180
2017-11-27T07:18:49.647Z,176
2017-11-27T07:19:30.206Z,160
2017-11-27T07:20:10.856Z,156
2017-11-27T07:20:51.673Z,172
2017-11-27T07:21:32.575Z,200
2017-11-27T07:22:13.034Z,236
2017-11-27T07:22:53.650Z,308
2017-11-27T07:23:34.127Z,364
2017-11-27T07:24:14.759Z,412
2017-11-27T07:24:57.872Z,488
2017-11-27T07:25:38.478Z,552
2017-11-27T07:26:18.993Z,604
2017-11-27T07:26:59.627Z,648
2017-11-27T07:27:40.113Z,684
2017-11-27T07:28:20.647Z,712
2017-11-27T07:29:01.226Z,732
2017-11-27T07:29:42.477Z,752
2017-11-27T07:30:23.904Z,772
2017-11-27T07:31:03.710Z,776
2017-11-27T07:31:44.221Z,764
2017-11-27T07:32:24.769Z,736
2017-11-27T07:33:05.400Z,696
2017-11-27T07:33:45.957Z,672
2017-11-27T07:34:30.264Z,664
2017-11-27T07:35:17.613Z,692
2017-11-27T07:35:58.199Z,688
2017-11-27T07:36:38.737Z,688
2017-11-27T07:37:19.262Z,688
2017-11-27T07:37:59.784Z,660
2017-11-27T07:38:40.332Z,612
2017-11-27T07:39:21.270Z,628
2017-11-27T07:40:01.841Z,664
2017-11-27T07:40:46.747Z,708
2017-11-27T07:41:26.604Z,756
2017-11-27T07:42:07.210Z,800
2017-11-27T07:42:47.734Z,844
2017-11-27T07:43:28.246Z,880
2017-11-27T07:44:08.776Z,908
2017-11-27T07:44:49.502Z,936
2017-11-27T07:45:30.149Z,968
2017-11-27T07:46:10.736Z,1004
2017-11-27T07:46:51.373Z,1032
2017-11-27T07:47:32.017Z,1052
2017-11-27T07:48:12.658Z,1076
2017-11-27T07:48:53.183Z,1120
2017-11-27T07:49:33.669Z,1132
2017-11-27T07:50:14.232Z,1168
2017-11-27T07:50:54.812Z,1176
2017-11-27T07:51:35.334Z,1188
2017-11-27T07:52:15.849Z,1236
2017-11-27T07:52:56.440Z,1244
2017-11-27T07:53:37.078Z,1260
2017-11-27T07:54:17.694Z,1308
2017-11-27T07:54:58.250Z,1312
2017-11-27T07:55:39.051Z,1308
2017-11-27T07:56:19.710Z,1368
2017-11-27T07:57:00.293Z,1320
2017-11-27T07:57:41.004Z,1316
2017-11-27T07:58:21.750Z,1300
2017-11-27T07:59:02.353Z,1308
2017-11-27T07:59:43.086Z,1312
2017-11-27T08:00:23.708Z,1316
2017-11-27T08:01:04.617Z,1304
2017-11-27T08:01:45.196Z,1292
2017-11-27T08:02:25.711Z,1268
2017-11-27T08:03:06.245Z,1248
2017-11-27T08:03:46.797Z,1220
2017-11-27T08:04:27.757Z,1196
2017-11-27T08:05:08.144Z,1168
2017-11-27T08:05:48.668Z,1184
2017-11-27T08:06:29.137Z,1184
2017-11-27T08:07:09.691Z,1180
2017-11-27T08:07:51.296Z,1172
2017-11-27T08:08:32.255Z,1156
2017-11-27T08:09:12.894Z,1172
2017-11-27T08:09:53.449Z,1152
2017-11-27T08:10:33.976Z,1156
2017-11-27T08:11:14.530Z,1180
2017-11-27T08:11:55.128Z,1184
2017-11-27T08:12:35.842Z,1224
2017-11-27T08:13:16.377Z,1280
2017-11-27T08:13:56.939Z,1332
2017-11-27T08:14:37.435Z,1368
2017-11-27T08:15:18.088Z,1420
2017-11-27T08:15:58.998Z,1448
2017-11-27T08:16:39.348Z,1504
2017-11-27T08:17:19.910Z,1536
2017-11-27T08:18:00.508Z,1556
2017-11-27T08:18:41.004Z,1564
2017-11-27T08:19:21.595Z,1568
2017-11-27T08:20:02.204Z,1564
2017-11-27T08:20:42.804Z,1592
2017-11-27T08:21:23.441Z,1616
2017-11-27T08:22:03.966Z,1624
2017-11-27T08:22:44.467Z,1656
2017-11-27T08:23:25.231Z,1700
2017-11-27T08:24:05.963Z,1732
2017-11-27T08:24:46.454Z,1788
2017-11-27T08:25:27.032Z,1848
2017-11-27T08:26:07.636Z,1904
2017-11-27T08:26:48.308Z,1952
2017-11-27T08:27:28.980Z,2012
2017-11-27T08:28:10.173Z,2048
2017-11-27T08:28:50.872Z,2096
2017-11-27T08:29:31.484Z,2160
2017-11-27T08:30:12.081Z,2216
2017-11-27T08:30:52.601Z,2300
2017-11-27T08:31:33.310Z,2352
2017-11-27T08:32:14.276Z,2424
2017-11-27T08:32:54.862Z,2484
2017-11-27T08:33:35.329Z,2576
2017-11-27T08:34:15.995Z,2620
2017-11-27T08:34:56.653Z,2652
2017-11-27T08:35:37.185Z,2668
2017-11-27T08:36:18.014Z,2644
2017-11-27T08:36:58.462Z,2616
2017-11-27T08:37:39.373Z,2608
2017-11-27T08:38:19.961Z,2488
2017-11-27T08:39:00.519Z,2444
2017-11-27T08:39:41.091Z,2436
2017-11-27T08:40:21.634Z,2384
2017-11-27T08:41:02.928Z,2360
2017-11-27T08:41:42.970Z,2360
2017-11-27T08:42:23.825Z,2388
2017-11-27T08:43:04.643Z,2436
2017-11-27T08:43:45.307Z,2472
2017-11-27T08:44:25.868Z,2428
2017-11-27T08:45:06.388Z,2412
2017-11-27T08:45:47.162Z,2408
2017-11-27T08:46:27.751Z,2408
2017-11-27T08:47:08.288Z,2376
2017-11-27T08:47:48.807Z,2308
2017-11-27T08:48:29.548Z,2268
2017-11-27T08:49:10.065Z,2288
2017-11-27T08:49:50.804Z,2292
2017-11-27T08:50:31.437Z,2276
2017-11-27T08:51:11.987Z,2296
2017-11-27T08:51:52.520Z,2316
2017-11-27T08:52:33.056Z,2320
2017-11-27T08:53:13.609Z,2332
2017-11-27T08:53:54.230Z,2320
2017-11-27T08:54:34.862Z,2320
2017-11-27T08:55:15.491Z,2328
2017-11-27T08:55:55.962Z,2328
2017-11-27T08:56:36.575Z,2324
2017-11-27T08:57:18.121Z,2332
2017-11-27T08:57:58.754Z,2296
2017-11-27T08:58:39.280Z,2240
2017-11-27T08:59:19.872Z,2204
2017-11-27T09:00:00.413Z,2160
2017-11-27T09:00:40.954Z,2136
2017-11-27T09:01:22.319Z,2132
2017-11-27T09:02:02.936Z,2172
2017-11-27T09:02:43.488Z,2232
2017-11-27T09:03:24.056Z,2260
2017-11-27T09:04:04.710Z,2284
2017-11-27T09:04:45.362Z,2292
2017-11-27T09:05:25.954Z,2288
2017-11-27T09:06:06.518Z,2280
2017-11-27T09:06:47.115Z,2280
2017-11-27T09:07:27.614Z,2284
2017-11-27T09:08:08.244Z,2268
2017-11-27T09:08:48.737Z,2228
2017-11-27T09:09:29.569Z,2176
2017-11-27T09:10:10.054Z,2112
2017-11-27T09:10:50.519Z,2080
2017-11-27T09:11:31.071Z,2068
2017-11-27T09:12:11.616Z,2056
2017-11-27T09:12:52.126Z,2024
2017-11-27T09:13:32.944Z,2004
2017-11-27T09:14:13.463Z,1984
2017-11-27T09:14:54.070Z,1936
2017-11-27T09:15:34.630Z,1912
2017-11-27T09:16:15.270Z,1872
2017-11-27T09:16:56.073Z,1800
2017-11-27T09:17:37.554Z,1724
2017-11-27T09:18:18.108Z,1628
2017-11-27T09:18:58.676Z,1540
2017-11-27T09:19:39.259Z,1432
2017-11-27T09:20:19.851Z,1316
2017-11-27T09:21:00.446Z,1212
2017-11-27T09:21:40.971Z,1164
2017-11-27T09:22:21.534Z,1128
2017-11-27T09:23:02.045Z,1116
2017-11-27T09:23:42.607Z,1128
2017-11-27T09:24:23.183Z,1184
2017-11-27T09:25:03.826Z,1236
2017-11-27T09:25:44.360Z,1288
2017-11-27T09:26:24.894Z,1308
2017-11-27T09:27:05.433Z,1288
2017-11-27T09:27:45.962Z,1172
2017-11-27T09:28:26.540Z,1076
2017-11-27T09:29:07.111Z,1068
2017-11-27T09:29:47.688Z,1148
2017-11-27T09:30:28.453Z,1340
2017-11-27T09:31:09.003Z,1552
2017-11-27T09:31:49.532Z,1712
2017-11-27T09:32:30.296Z,1764
2017-11-27T09:33:10.831Z,1768
2017-11-27T09:33:51.442Z,1756
2017-11-27T09:34:32.015Z,1736
2017-11-27T09:35:12.725Z,1696
2017-11-27T09:35:53.257Z,1604
2017-11-27T09:36:33.937Z,1464
2017-11-27T09:37:15.975Z,1380
2017-11-27T09:39:54.209Z,1660
2017-11-27T09:40:34.887Z,1804
2017-11-27T09:41:15.483Z,1920
2017-11-27T09:41:56.006Z,1968
2017-11-27T09:42:36.573Z,2000
2017-11-27T09:43:17.261Z,1988
2017-11-27T09:43:57.813Z,1952
2017-11-27T09:44:38.356Z,1908
2017-11-27T09:45:19.138Z,1876
2017-11-27T09:45:59.684Z,1844
2017-11-27T09:46:40.230Z,1840
2017-11-27T09:47:20.890Z,1844
2017-11-27T09:48:01.226Z,1876
2017-11-27T09:48:42.074Z,1896
2017-11-27T09:49:22.615Z,1876
2017-11-27T09:50:03.382Z,1876
2017-11-27T09:50:44.109Z,1884
2017-11-27T09:51:24.499Z,1908
2017-11-27T09:52:05.109Z,1920
2017-11-27T09:52:45.939Z,1920
2017-11-27T09:53:26.465Z,1940
2017-11-27T09:54:06.958Z,1884
2017-11-27T09:54:47.545Z,1784
2017-11-27T09:55:28.143Z,1720
2017-11-27T09:56:08.759Z,1636
2017-11-27T09:56:49.258Z,1572
2017-11-27T09:57:29.771Z,1584
2017-11-27T09:58:10.338Z,1632
2017-11-27T09:58:50.840Z,1652
2017-11-27T09:59:31.391Z,1628
2017-11-27T10:00:12.080Z,1632
2017-11-27T10:00:52.642Z,1648
2017-11-27T10:01:33.187Z,1636
2017-11-27T10:02:13.726Z,1636
2017-11-27T10:02:54.264Z,1664
2017-11-27T10:03:34.818Z,1680
2017-11-27T10:04:15.334Z,1676
2017-11-27T10:04:55.997Z,1716
2017-11-27T10:05:36.542Z,1808
2017-11-27T10:06:17.068Z,1900
2017-11-27T10:06:57.929Z,1996
2017-11-27T10:07:38.692Z,2088
2017-11-27T10:08:19.216Z,2164
2017-11-27T10:08:59.847Z,2216
2017-11-27T10:09:40.348Z,2256
2017-11-27T10:10:20.944Z,2328
2017-11-27T10:11:01.523Z,2428
2017-11-27T10:11:42.038Z,2508
2017-11-27T10:12:22.584Z,2556
2017-11-27T10:13:03.194Z,2572
2017-11-27T10:13:43.669Z,2592
2017-11-27T10:14:24.363Z,2640
2017-11-27T10:15:04.867Z,2628
2017-11-27T10:15:45.500Z,2660
2017-11-27T10:16:26.130Z,2712
2017-11-27T10:17:06.811Z,2752
2017-11-27T10:17:47.450Z,2740
2017-11-27T10:18:28.178Z,2724
2017-11-27T10:19:09.052Z,2720
2017-11-27T10:19:49.361Z,2716
2017-11-27T10:20:30.244Z,2700
2017-11-27T10:21:10.732Z,2784
2017-11-27T10:21:51.543Z,2880
2017-11-27T10:22:32.454Z,2980
2017-11-27T10:23:13.167Z,3044
2017-11-27T10:23:53.699Z,3068
2017-11-27T10:24:34.202Z,2992
2017-11-27T10:25:14.752Z,2856
2017-11-27T10:25:55.404Z,2820
2017-11-27T10:26:35.949Z,2816
2017-11-27T10:27:16.502Z,2732
2017-11-27T10:27:57.032Z,2752
2017-11-27T10:28:37.725Z,2744
2017-11-27T10:29:18.113Z,2764
2017-11-27T10:29:58.636Z,2616
2017-11-27T10:30:39.267Z,2620
2017-11-27T10:31:20.146Z,2600
2017-11-27T10:32:00.692Z,2540
2017-11-27T10:32:41.359Z,2576
2017-11-27T10:33:22.629Z,2560
2017-11-27T10:34:06.840Z,2552
2017-11-27T10:34:47.612Z,2568
2017-11-27T10:35:28.062Z,2632
2017-11-27T10:36:08.528Z,2652
2017-11-27T10:36:49.122Z,2720
2017-11-27T10:37:29.630Z,2572
2017-11-27T10:38:10.141Z,2396
2017-11-27T10:38:50.702Z,2296
2017-11-27T10:39:31.283Z,2336
2017-11-27T10:40:11.874Z,2464
2017-11-27T10:40:52.339Z,2508
2017-11-27T10:41:32.924Z,2512
2017-11-27T10:42:13.473Z,2664
2017-11-27T10:42:53.990Z,2724
2017-11-27T10:43:34.564Z,2860
2017-11-27T10:44:15.274Z,3036
2017-11-27T10:44:56.055Z,2960
2017-11-27T10:45:36.537Z,3044
2017-11-27T10:46:17.140Z,3196
2017-11-27T10:46:58.174Z,3264
2017-11-27T10:47:39.092Z,3428
2017-11-27T10:48:19.868Z,3500
2017-11-27T10:49:00.500Z,3516
2017-11-27T10:49:41.000Z,3536
2017-11-27T10:50:21.638Z,3484
2017-11-27T10:51:02.177Z,3616
2017-11-27T10:51:43.709Z,3680
2017-11-27T10:52:25.015Z,3708
2017-11-27T10:53:05.541Z,3724
2017-11-27T10:53:46.120Z,3680
2017-11-27T10:54:26.621Z,3568
2017-11-27T10:55:07.137Z,3484
2017-11-27T10:55:47.901Z,3252
2017-11-27T10:56:31.264Z,3124
2017-11-27T10:57:11.775Z,2996
2017-11-27T10:57:52.382Z,2724
2017-11-27T10:58:34.241Z,2764
2017-11-27T10:59:15.630Z,2912
2017-11-27T10:59:56.241Z,2892
2017-11-27T11:00:36.746Z,2808
2017-11-27T11:01:17.302Z,2816
2017-11-27T11:01:59.324Z,2724
2017-11-27T11:02:40.284Z,2600
2017-11-27T11:03:20.603Z,2468
2017-11-27T11:04:01.008Z,2504
2017-11-27T11:04:41.525Z,2360
2017-11-27T11:05:22.128Z,2272
2017-11-27T11:06:02.635Z,2256
2017-11-27T11:06:43.536Z,2332
2017-11-27T11:07:24.511Z,2432
2017-11-27T11:08:05.775Z,2484
2017-11-27T11:08:46.350Z,2572
2017-11-27T11:09:26.858Z,2696
2017-11-27T11:10:07.662Z,2860
2017-11-27T11:10:48.236Z,2808
2017-11-27T11:11:31.134Z,3072
2017-11-27T11:12:11.725Z,3200
2017-11-27T11:12:52.315Z,3364
2017-11-27T11:13:32.821Z,3372
2017-11-27T11:14:13.374Z,3344
2017-11-27T11:16:46.124Z,3096
2017-11-27T11:17:26.611Z,3112
2017-11-27T11:18:07.165Z,3092
2017-11-27T11:18:47.734Z,3024
2017-11-27T11:19:28.283Z,3080
2017-11-27T11:20:09.395Z,3092
2017-11-27T11:20:50.904Z,3216
2017-11-27T11:21:31.558Z,3312
2017-11-27T11:22:12.099Z,3244
2017-11-27T11:22:52.654Z,3140
2017-11-27T11:23:33.259Z,3188
2017-11-27T11:24:14.152Z,3312
2017-11-27T11:24:54.562Z,3272
2017-11-27T11:27:08.759Z,3020
2017-11-27T11:27:51.612Z,3184
2017-11-27T11:28:31.719Z,3264
2017-11-27T11:29:12.290Z,3000
2017-11-27T11:29:52.813Z,2772
2017-11-27T11:30:33.373Z,2812
2017-11-27T11:31:13.852Z,2776
2017-11-27T11:31:54.565Z,2580
2017-11-27T11:32:35.219Z,2528
2017-11-27T11:33:17.053Z,2572
2017-11-27T11:33:57.599Z,2368
2017-11-27T11:34:38.125Z,2240
2017-11-27T11:35:18.655Z,2244
2017-11-27T11:35:59.174Z,2180
2017-11-27T11:36:40.540Z,2128
2017-11-27T11:37:21.372Z,2156
2017-11-27T11:38:02.067Z,2220
2017-11-27T11:38:42.624Z,2360
2017-11-27T11:39:23.156Z,2608
2017-11-27T11:40:03.875Z,2796
2017-11-27T11:40:44.513Z,2896
2017-11-27T11:43:19.087Z,3080
2017-11-27T11:43:59.561Z,3128
2017-11-27T11:44:42.033Z,3152
2017-11-27T11:45:22.225Z,3176
2017-11-27T11:46:04.662Z,3180
2017-11-27T11:46:45.547Z,3144
2017-11-27T11:47:26.622Z,3092
2017-11-27T11:48:08.342Z,2992
2017-11-27T11:48:50.636Z,2892
2017-11-27T11:49:32.708Z,2832
2017-11-27T11:50:14.341Z,2756
2017-11-27T11:50:54.940Z,2660
2017-11-27T11:51:36.725Z,2552
2017-11-27T11:52:17.680Z,2504
2017-11-27T11:52:58.818Z,2404
2017-11-27T11:53:40.940Z,2340
2017-11-27T11:54:30.318Z,2432
2017-11-27T11:55:11.365Z,2372
2017-11-27T11:55:54.126Z,2380
2017-11-27T11:56:35.175Z,2304
2017-11-27T11:59:28.257Z,2568
2017-11-27T12:00:08.890Z,2508
2017-11-27T12:00:52.489Z,2744
2017-11-27T12:01:33.266Z,2944
2017-11-27T12:02:15.353Z,2988
2017-11-27T12:02:56.719Z,3024
2017-11-27T12:03:37.175Z,3112
2017-11-27T12:04:17.679Z,3108
2017-11-27T12:04:58.706Z,3124
2017-11-27T12:05:50.049Z,3104
2017-11-27T12:06:31.268Z,3044
2017-11-27T12:07:12.979Z,2956
2017-11-27T12:07:52.679Z,2828
2017-11-27T12:08:33.228Z,2772
2017-11-27T12:09:14.106Z,2840
2017-11-27T12:09:55.426Z,2908
2017-11-27T12:10:36.111Z,2848
2017-11-27T12:11:17.445Z,2696
2017-11-27T12:11:58.061Z,2576
2017-11-27T12:12:41.458Z,2520
2017-11-27T12:13:23.411Z,2416
2017-11-27T12:14:03.668Z,2372
2017-11-27T12:14:46.606Z,2420
2017-11-27T12:15:27.198Z,2468
2017-11-27T12:16:07.877Z,2524
2017-11-27T12:16:48.855Z,2544
2017-11-27T12:17:30.205Z,2600
2017-11-27T12:18:12.100Z,2556
2017-11-27T12:18:52.784Z,2592
2017-11-27T12:19:33.308Z,2676
2017-11-27T12:20:13.937Z,2764
2017-11-27T12:20:56.611Z,2892
2017-11-27T12:21:37.327Z,2928
2017-11-27T12:22:17.847Z,2980
2017-11-27T12:22:58.450Z,3024
2017-11-27T12:23:39.070Z,3124
2017-11-27T12:24:20.004Z,3260
2017-11-27T12:25:02.664Z,3140
2017-11-27T12:25:42.465Z,2948
2017-11-27T12:26:23.019Z,3028
2017-11-27T12:27:03.541Z,3164
2017-11-27T12:27:44.600Z,3076
2017-11-27T12:28:27.371Z,3020
2017-11-27T12:29:07.892Z,3116
2017-11-27T12:29:48.404Z,3248
2017-11-27T12:30:29.130Z,3276
2017-11-27T12:31:11.534Z,3188
2017-11-27T12:33:10.914Z,3168
2017-11-27T12:33:51.811Z,3016
2017-11-27T12:34:32.390Z,3020
2017-11-27T12:35:12.948Z,3064
2017-11-27T12:35:53.516Z,2896
2017-11-27T12:36:34.050Z,2776
2017-11-27T12:37:16.692Z,2880
2017-11-27T12:37:57.829Z,2972
2017-11-27T12:38:38.840Z,2876
2017-11-27T12:39:19.531Z,2820
2017-11-27T12:40:00.126Z,2668
2017-11-27T12:40:43.294Z,2644